Time;durP1;ratioP1;P1;durP2;ratioP2;P2;SDS_P1;SDS_P2;PMS_P1;PMS_P2;Temp;Humidity;BMP_temperature;BMP_pressure;BME280_temperature;BME280_humidity;BME280_pressure;Samples;Min_cycle;Max_cycle;Signal;HPM_P1;HPM_P2
2022/12/28 00:02:08;;;;;;;11.70;4.20;;;5.50;99.90;;;;;;5021859;28;20041;-67
2022/12/28 00:04:34;;;;;;;11.93;4.40;;;5.40;99.90;;;;;;5025397;28;20044;-67
2022/12/28 00:07:00;;;;;;;10.50;4.20;;;5.40;99.90;;;;;;5021023;28;20057;-68
2022/12/28 00:09:25;;;;;;;10.65;3.55;;;5.40;99.90;;;;;;5020405;28;20095;-67
2022/12/28 00:11:51;;;;;;;10.70;4.18;;;5.40;99.90;;;;;;5022502;28;20507;-68
2022/12/28 00:14:17;;;;;;;10.48;3.92;;;5.30;99.90;;;;;;5025534;28;20045;-68
2022/12/28 00:16:43;;;;;;;9.95;3.85;;;5.40;99.90;;;;;;5022331;28;20128;-67
2022/12/28 00:19:14;;;;;;;9.90;3.90;;;5.30;99.90;;;;;;5022282;28;20343;-67
2022/12/28 00:21:41;;;;;;;9.50;4.20;;;5.40;99.90;;;;;;5023709;28;20611;-67
2022/12/28 00:24:07;;;;;;;12.70;4.00;;;5.40;99.90;;;;;;5020641;28;20100;-67
2022/12/28 00:26:34;;;;;;;7.45;3.90;;;5.40;99.90;;;;;;5028301;28;20042;-68
2022/12/28 00:29:01;;;;;;;10.63;3.78;;;5.40;99.90;;;;;;5021966;28;20041;-67
2022/12/28 00:31:27;;;;;;;10.60;4.57;;;5.40;99.90;;;;;;5019976;28;20120;-67
2022/12/28 00:33:53;;;;;;;11.98;4.50;;;5.40;99.90;;;;;;5023868;28;20093;-68
2022/12/28 00:36:19;;;;;;;11.15;5.13;;;5.40;99.90;;;;;;5028108;28;20073;-68
2022/12/28 00:38:45;;;;;;;12.68;4.78;;;5.40;99.90;;;;;;5025605;28;20116;-67
2022/12/28 00:41:10;;;;;;;8.90;4.60;;;5.40;99.90;;;;;;5016899;28;20169;-67
2022/12/28 00:43:36;;;;;;;10.40;4.38;;;5.40;99.90;;;;;;5023121;28;20108;-68
2022/12/28 00:46:03;;;;;;;10.93;4.97;;;5.40;99.90;;;;;;5021449;28;20034;-68
2022/12/28 00:48:29;;;;;;;10.50;4.57;;;5.40;99.90;;;;;;5027167;28;20034;-67
2022/12/28 00:51:06;;;;;;;10.88;4.50;;;5.40;99.90;;;;;;5022921;28;20046;-67
2022/12/28 00:53:32;;;;;;;11.55;4.43;;;5.40;99.90;;;;;;5028570;28;20487;-67
2022/12/28 00:56:12;;;;;;;12.98;4.65;;;5.40;99.90;;;;;;5020314;28;20041;-67
2022/12/28 00:58:38;;;;;;;10.55;4.35;;;5.40;99.90;;;;;;5024277;28;20044;-67
2022/12/28 01:01:09;;;;;;;11.00;4.70;;;5.40;99.90;;;;;;5020543;28;20516;-67
2022/12/28 01:03:35;;;;;;;9.93;4.43;;;5.30;99.90;;;;;;5025707;28;20045;-67
2022/12/28 01:06:08;;;;;;;8.65;4.70;;;5.30;99.90;;;;;;5019410;28;20120;-66
2022/12/28 01:08:38;;;;;;;10.82;4.18;;;5.30;99.90;;;;;;5023871;28;20057;-67
2022/12/28 01:11:24;;;;;;;9.77;4.03;;;5.40;99.90;;;;;;5025444;28;20067;-67
2022/12/28 01:13:52;;;;;;;12.02;4.70;;;5.40;99.90;;;;;;5021796;28;20042;-67
2022/12/28 01:16:21;;;;;;;14.30;4.45;;;5.40;99.90;;;;;;5018612;28;20046;-67
2022/12/28 01:18:47;;;;;;;9.05;4.50;;;5.40;99.90;;;;;;5025003;28;20084;-67
2022/12/28 01:21:16;;;;;;;13.45;4.63;;;5.40;99.90;;;;;;5025350;28;20050;-67
2022/12/28 01:23:43;;;;;;;10.18;4.85;;;5.40;99.90;;;;;;5020242;28;20143;-67
2022/12/28 01:26:09;;;;;;;13.20;5.28;;;5.40;99.90;;;;;;5019226;28;20195;-67
2022/12/28 01:28:35;;;;;;;8.20;4.55;;;5.40;99.90;;;;;;5018079;28;20046;-67
2022/12/28 01:31:07;;;;;;;8.30;4.68;;;5.50;99.90;;;;;;5025187;28;20640;-66
2022/12/28 01:33:33;;;;;;;12.65;4.55;;;5.40;99.90;;;;;;5020883;28;20405;-66
2022/12/28 01:36:07;;;;;;;8.70;4.78;;;5.50;99.90;;;;;;5019525;28;20041;-66
2022/12/28 01:38:36;;;;;;;8.48;4.57;;;5.50;99.90;;;;;;5018068;28;20037;-66
2022/12/28 01:41:06;;;;;;;9.45;4.95;;;5.50;99.90;;;;;;5016526;28;20072;-66
2022/12/28 01:44:11;;;;;;;10.48;4.68;;;5.50;99.90;;;;;;5022200;28;20042;-66
2022/12/28 01:46:43;;;;;;;13.13;4.45;;;5.50;99.90;;;;;;5021649;28;20033;-66
2022/12/28 01:49:28;;;;;;;10.27;4.53;;;5.50;99.90;;;;;;5019513;28;20042;-66
2022/12/28 01:52:16;;;;;;;10.73;5.15;;;5.60;99.90;;;;;;5024716;28;20489;-66
2022/12/28 01:54:49;;;;;;;15.02;5.28;;;5.60;99.90;;;;;;5017681;28;20075;-66
2022/12/28 01:57:18;;;;;;;13.47;5.30;;;5.60;99.90;;;;;;5023088;28;20572;-66
2022/12/28 01:59:52;;;;;;;11.60;4.90;;;5.60;99.90;;;;;;5017341;28;20120;-66
2022/12/28 02:02:20;;;;;;;10.13;4.85;;;5.60;99.90;;;;;;5024503;28;20120;-65
2022/12/28 02:04:46;;;;;;;15.55;5.68;;;5.60;99.90;;;;;;5016301;28;20113;-64
2022/12/28 02:07:17;;;;;;;9.10;4.88;;;5.60;99.90;;;;;;5020319;28;20034;-64
2022/12/28 02:09:43;;;;;;;11.85;4.50;;;5.70;99.90;;;;;;5022460;28;20420;-64
2022/12/28 02:12:13;;;;;;;11.90;4.90;;;5.70;99.90;;;;;;5019768;28;20029;-64
2022/12/28 02:14:40;;;;;;;11.38;5.68;;;5.70;99.90;;;;;;5019352;28;20436;-64
2022/12/28 02:17:08;;;;;;;13.75;5.25;;;5.70;99.90;;;;;;5018705;28;20516;-64
2022/12/28 02:19:45;;;;;;;9.32;5.22;;;5.70;99.90;;;;;;5017035;28;20575;-64
2022/12/28 02:22:45;;;;;;;8.52;4.70;;;5.70;99.90;;;;;;5019339;28;20129;-64
2022/12/28 02:25:35;;;;;;;11.55;5.20;;;5.70;99.90;;;;;;5019373;28;20520;-64
2022/12/28 02:28:19;;;;;;;10.15;5.15;;;5.70;99.90;;;;;;5018514;28;20052;-65
2022/12/28 02:30:59;;;;;;;13.85;5.60;;;5.70;99.90;;;;;;5013017;28;20041;-65
2022/12/28 02:33:36;;;;;;;9.30;5.50;;;5.70;99.90;;;;;;5018440;28;20145;-65
2022/12/28 02:36:11;;;;;;;10.63;5.88;;;5.70;99.90;;;;;;5025712;28;20034;-65
2022/12/28 02:38:53;;;;;;;10.57;5.45;;;5.80;99.90;;;;;;5024341;28;20042;-65
2022/12/28 02:41:23;;;;;;;12.10;5.40;;;5.70;99.90;;;;;;5014713;28;20048;-67
2022/12/28 02:43:49;;;;;;;10.43;5.72;;;5.80;99.90;;;;;;5020440;28;20597;-66
2022/12/28 02:52:43;;;;;;;13.93;6.07;;;5.80;99.90;;;;;;5023269;28;20083;-66
2022/12/28 02:58:24;;;;;;;14.20;6.10;;;5.80;99.90;;;;;;5021500;28;20045;-65
2022/12/28 03:01:22;;;;;;;13.38;6.30;;;5.90;99.90;;;;;;5017128;28;20041;-65
2022/12/28 03:04:29;;;;;;;12.88;5.93;;;5.90;99.90;;;;;;5020443;28;20104;-65
2022/12/28 03:10:07;;;;;;;11.48;6.63;;;5.90;99.90;;;;;;5017128;28;20462;-65
2022/12/28 03:12:55;;;;;;;12.88;6.05;;;5.90;99.90;;;;;;5018490;28;20079;-65
2022/12/28 03:15:31;;;;;;;15.27;6.78;;;6.00;99.90;;;;;;5023750;28;20128;-65
2022/12/28 03:32:01;;;;;;;11.52;6.97;;;6.20;99.90;;;;;;5024309;28;20100;-68
2022/12/28 03:34:27;;;;;;;10.15;6.45;;;6.20;99.90;;;;;;5026603;28;20065;-68
2022/12/28 03:37:11;;;;;;;16.20;7.60;;;6.20;99.90;;;;;;5010938;28;20042;-68
2022/12/28 03:40:20;;;;;;;10.43;6.55;;;6.30;99.90;;;;;;5018605;28;20113;-68
2022/12/28 03:45:49;;;;;;;12.00;6.43;;;6.30;99.90;;;;;;5018390;28;20045;-68
2022/12/28 03:48:16;;;;;;;11.40;5.93;;;6.30;99.90;;;;;;5019742;28;20083;-67
2022/12/28 03:50:45;;;;;;;10.85;6.90;;;6.30;99.90;;;;;;5026177;28;20034;-68
2022/12/28 03:53:11;;;;;;;8.52;5.90;;;6.30;99.90;;;;;;5020408;28;20045;-68
2022/12/28 03:55:37;;;;;;;9.88;6.05;;;6.40;99.90;;;;;;5017074;28;20090;-67
2022/12/28 03:58:04;;;;;;;10.35;5.68;;;6.40;99.90;;;;;;5016300;28;20041;-68
2022/12/28 04:00:29;;;;;;;11.45;5.50;;;6.40;99.90;;;;;;5020462;28;20461;-67
2022/12/28 04:02:55;;;;;;;10.30;5.95;;;6.40;99.90;;;;;;5015390;28;20038;-68
2022/12/28 04:05:21;;;;;;;13.20;6.47;;;6.50;99.90;;;;;;5019020;28;20477;-68
2022/12/28 04:07:47;;;;;;;9.55;5.63;;;6.50;99.90;;;;;;5018614;28;20038;-68
2022/12/28 04:10:13;;;;;;;9.27;5.78;;;6.50;99.90;;;;;;5013298;28;20487;-68
2022/12/28 04:12:39;;;;;;;6.18;4.72;;;6.50;99.90;;;;;;5018354;28;20033;-68
2022/12/28 04:15:05;;;;;;;6.88;5.60;;;6.60;99.90;;;;;;5023177;28;20045;-68
2022/12/28 04:17:31;;;;;;;7.45;5.38;;;6.60;99.90;;;;;;5018897;28;20366;-69
2022/12/28 04:19:57;;;;;;;8.38;5.45;;;6.50;99.90;;;;;;5023429;28;20052;-68
2022/12/28 04:22:23;;;;;;;7.70;5.35;;;6.60;99.90;;;;;;5014275;28;20046;-69
2022/12/28 04:24:51;;;;;;;7.80;5.28;;;6.60;99.90;;;;;;5028987;28;20041;-69
2022/12/28 04:27:24;;;;;;;8.25;5.68;;;6.60;99.90;;;;;;5030442;28;20046;-68
2022/12/28 04:29:52;;;;;;;7.57;5.03;;;6.60;99.90;;;;;;5023663;28;20643;-68
2022/12/28 04:32:18;;;;;;;8.77;4.85;;;6.60;99.90;;;;;;5025941;28;20042;-68
2022/12/28 04:34:48;;;;;;;9.07;5.40;;;6.70;99.90;;;;;;5027539;28;20397;-68
2022/12/28 04:37:21;;;;;;;8.98;4.90;;;6.70;99.90;;;;;;5027274;28;20080;-69
2022/12/28 04:39:54;;;;;;;9.45;4.80;;;6.70;99.90;;;;;;5030548;28;20029;-69
2022/12/28 04:42:24;;;;;;;6.82;5.10;;;6.70;99.90;;;;;;5025244;28;20048;-69
2022/12/28 04:44:49;;;;;;;8.15;5.95;;;6.70;99.90;;;;;;5012571;28;20404;-68
2022/12/28 04:47:15;;;;;;;8.93;4.95;;;6.70;99.90;;;;;;5025057;28;20084;-69
2022/12/28 04:49:41;;;;;;;7.65;5.53;;;6.70;99.90;;;;;;5027096;28;20041;-69
2022/12/28 04:52:06;;;;;;;8.63;5.75;;;6.80;99.90;;;;;;5028116;28;20065;-68
2022/12/28 04:54:32;;;;;;;8.23;5.85;;;6.80;99.90;;;;;;5015841;28;20120;-69
2022/12/28 04:56:58;;;;;;;6.85;5.13;;;6.80;99.90;;;;;;5025736;28;20285;-69
2022/12/28 04:59:24;;;;;;;8.00;4.80;;;6.80;99.90;;;;;;5043552;28;20421;-68
2022/12/28 05:01:49;;;;;;;6.22;4.80;;;6.80;99.90;;;;;;5020424;28;20037;-68
2022/12/28 05:04:15;;;;;;;7.30;5.40;;;6.90;99.90;;;;;;5029350;28;20041;-68
2022/12/28 05:06:41;;;;;;;6.85;5.05;;;6.90;99.90;;;;;;5027609;28;20037;-68
2022/12/28 05:09:06;;;;;;;7.85;5.90;;;6.90;99.90;;;;;;5023358;28;20072;-68
2022/12/28 05:11:32;;;;;;;6.97;5.43;;;7.00;99.90;;;;;;5025686;28;20037;-69
2022/12/28 05:13:58;;;;;;;7.15;5.70;;;7.00;99.90;;;;;;5021914;28;20418;-68
2022/12/28 05:16:26;;;;;;;6.68;5.30;;;7.00;99.90;;;;;;5023201;28;20575;-68
2022/12/28 05:18:51;;;;;;;6.63;5.90;;;7.00;99.90;;;;;;5023863;28;20556;-68
2022/12/28 05:21:23;;;;;;;6.32;5.72;;;7.10;99.90;;;;;;5027284;28;20313;-68
2022/12/28 05:23:49;;;;;;;7.10;6.40;;;7.10;99.90;;;;;;5029413;28;20064;-68
2022/12/28 05:26:18;;;;;;;8.38;6.45;;;7.10;99.90;;;;;;5025061;28;20050;-68
2022/12/28 05:28:44;;;;;;;10.63;7.07;;;7.20;99.90;;;;;;5027447;28;20045;-69
2022/12/28 05:31:14;;;;;;;8.65;6.75;;;7.20;99.90;;;;;;5020326;28;20034;-69
2022/12/28 05:33:40;;;;;;;12.18;6.65;;;7.20;99.90;;;;;;5032832;28;20029;-68
2022/12/28 05:36:09;;;;;;;8.13;6.80;;;7.30;99.90;;;;;;5021502;28;20042;-69
2022/12/28 05:38:35;;;;;;;6.90;6.03;;;7.30;99.90;;;;;;5028705;28;20042;-69
2022/12/28 05:41:10;;;;;;;9.35;7.05;;;7.30;99.90;;;;;;5021285;28;20224;-70
2022/12/28 05:43:36;;;;;;;;;;;7.30;99.90;;;;;;5032570;28;20045;-69
2022/12/28 05:46:03;;;;;;;8.68;6.63;;;7.30;99.90;;;;;;5024971;28;19974;-69
2022/12/28 05:48:32;;;;;;;8.52;7.65;;;7.40;99.90;;;;;;5025969;28;20088;-69
2022/12/28 05:51:00;;;;;;;9.50;7.78;;;7.40;99.90;;;;;;5021895;28;20038;-69
2022/12/28 05:53:27;;;;;;;9.95;8.55;;;7.50;99.90;;;;;;5027430;28;20053;-69
2022/12/28 05:56:19;;;;;;;12.07;8.32;;;7.50;99.90;;;;;;5028598;28;20045;-70
2022/12/28 05:58:46;;;;;;;10.13;7.95;;;7.50;99.90;;;;;;5020257;28;20081;-70
2022/12/28 06:01:13;;;;;;;10.40;8.27;;;7.50;99.90;;;;;;5030377;28;20041;-69
2022/12/28 06:03:39;;;;;;;9.55;8.45;;;7.50;99.90;;;;;;5027010;28;20065;-69
2022/12/28 06:06:10;;;;;;;9.77;8.70;;;7.60;99.90;;;;;;5023172;28;20045;-70
2022/12/28 06:08:37;;;;;;;11.27;9.23;;;7.60;99.90;;;;;;5021693;28;20034;-69
2022/12/28 06:11:05;;;;;;;9.40;8.27;;;7.70;99.90;;;;;;5023114;28;20149;-70
2022/12/28 06:13:31;;;;;;;10.60;8.65;;;7.70;99.90;;;;;;5026066;28;20401;-70
2022/12/28 06:15:57;;;;;;;10.77;8.85;;;7.70;99.90;;;;;;5029773;28;20042;-70
2022/12/28 06:18:27;;;;;;;10.65;9.55;;;7.70;99.90;;;;;;5019631;28;20038;-70
2022/12/28 06:20:53;;;;;;;11.65;8.55;;;7.70;99.90;;;;;;5022408;28;20049;-70
2022/12/28 06:23:19;;;;;;;11.70;9.00;;;7.70;99.90;;;;;;5020643;28;20054;-69
2022/12/28 06:25:45;;;;;;;10.82;9.60;;;7.80;99.90;;;;;;5025000;28;20049;-69
2022/12/28 06:28:10;;;;;;;11.05;9.57;;;7.80;99.90;;;;;;5020161;28;20051;-69
2022/12/28 06:30:36;;;;;;;10.30;8.70;;;7.80;99.90;;;;;;5024108;28;20037;-69
2022/12/28 06:33:02;;;;;;;11.52;8.90;;;7.80;99.90;;;;;;5022906;28;20072;-69
2022/12/28 06:35:27;;;;;;;10.20;8.70;;;7.90;99.90;;;;;;5023289;28;20619;-69
2022/12/28 06:37:53;;;;;;;9.27;8.15;;;7.90;99.90;;;;;;5024517;28;20033;-69
2022/12/28 06:40:19;;;;;;;9.52;8.52;;;8.00;99.90;;;;;;5023250;28;20409;-69
2022/12/28 06:42:45;;;;;;;9.80;8.70;;;7.90;99.90;;;;;;5020848;28;20049;-69
2022/12/28 06:45:10;;;;;;;8.70;7.85;;;8.00;99.90;;;;;;5025198;28;20042;-69
2022/12/28 06:47:36;;;;;;;9.77;8.63;;;8.00;99.90;;;;;;5027411;28;20045;-69
2022/12/28 06:50:03;;;;;;;11.48;8.15;;;8.00;99.90;;;;;;5025501;28;20042;-69
2022/12/28 06:52:29;;;;;;;9.23;8.13;;;8.00;99.90;;;;;;5017764;28;20069;-70
2022/12/28 06:54:54;;;;;;;9.38;8.38;;;8.10;99.90;;;;;;5018938;28;20371;-70
2022/12/28 06:57:20;;;;;;;9.93;8.93;;;8.10;99.90;;;;;;5023927;28;20038;-70
2022/12/28 06:59:46;;;;;;;11.15;9.63;;;8.10;99.90;;;;;;5017943;28;20049;-70
2022/12/28 07:02:12;;;;;;;10.05;9.15;;;8.10;99.90;;;;;;5016119;28;20078;-70
2022/12/28 07:04:37;;;;;;;9.50;8.48;;;8.10;99.90;;;;;;5024015;28;20032;-70
2022/12/28 07:07:03;;;;;;;11.38;9.63;;;8.20;99.90;;;;;;5022123;28;20357;-70
2022/12/28 07:09:29;;;;;;;11.15;9.70;;;8.20;99.90;;;;;;5011102;28;20098;-70
2022/12/28 07:11:56;;;;;;;10.60;8.90;;;8.20;99.90;;;;;;5024079;28;20045;-70
2022/12/28 07:14:22;;;;;;;9.98;8.82;;;8.10;99.90;;;;;;5024554;28;20047;-70
2022/12/28 07:16:48;;;;;;;10.80;8.82;;;8.10;99.90;;;;;;5020735;28;20042;-71
2022/12/28 07:19:14;;;;;;;12.18;10.00;;;8.20;99.90;;;;;;5017355;28;20104;-69
2022/12/28 07:21:40;;;;;;;10.50;9.40;;;8.20;99.90;;;;;;5017857;28;20052;-69
2022/12/28 07:24:06;;;;;;;11.10;9.82;;;8.20;99.90;;;;;;5018875;28;20041;-69
2022/12/28 07:26:34;;;;;;;12.65;10.57;;;8.30;99.90;;;;;;5020380;28;20046;-69
2022/12/28 07:29:02;;;;;;;11.85;10.15;;;8.20;99.90;;;;;;5018861;28;20038;-69
2022/12/28 07:31:31;;;;;;;13.27;9.82;;;8.30;99.90;;;;;;5017813;28;20073;-69
2022/12/28 07:33:58;;;;;;;11.55;10.45;;;8.30;99.90;;;;;;5020179;28;20086;-69
2022/12/28 07:36:26;;;;;;;11.43;9.85;;;8.30;99.90;;;;;;5036359;28;20057;-69
2022/12/28 07:38:52;;;;;;;11.50;10.27;;;8.40;99.90;;;;;;5018248;28;20170;-69
2022/12/28 07:41:21;;;;;;;13.02;10.43;;;8.40;99.90;;;;;;5016079;28;20073;-69
2022/12/28 07:43:47;;;;;;;13.52;11.98;;;8.40;99.90;;;;;;5021435;28;20057;-69
2022/12/28 07:46:16;;;;;;;10.88;9.77;;;8.40;99.90;;;;;;5014798;28;20103;-69
2022/12/28 07:48:43;;;;;;;14.77;9.82;;;8.40;99.90;;;;;;5013747;28;20089;-69
2022/12/28 07:51:11;;;;;;;13.60;10.07;;;8.40;99.90;;;;;;5016431;28;20042;-69
2022/12/28 07:53:38;;;;;;;12.63;10.27;;;8.40;99.90;;;;;;5021668;28;20200;-70
2022/12/28 07:56:05;;;;;;;11.88;9.63;;;8.40;99.90;;;;;;5021782;28;20347;-69
2022/12/28 07:58:31;;;;;;;13.10;10.43;;;8.50;99.90;;;;;;5023267;28;20048;-69
2022/12/28 08:01:08;;;;;;;12.70;10.40;;;8.40;99.90;;;;;;5023917;28;20102;-70
2022/12/28 08:03:35;;;;;;;12.77;9.98;;;8.50;99.90;;;;;;5021463;28;20037;-69
2022/12/28 08:06:09;;;;;;;12.40;10.13;;;8.40;99.90;;;;;;5019806;28;20184;-69
2022/12/28 08:08:37;;;;;;;11.82;8.93;;;8.50;99.90;;;;;;5021711;28;20052;-68
2022/12/28 08:11:06;;;;;;;10.35;9.25;;;8.50;99.90;;;;;;5018856;28;20042;-68
2022/12/28 08:13:34;;;;;;;11.00;9.40;;;8.50;99.90;;;;;;5022454;28;20072;-68
2022/12/28 08:16:00;;;;;;;13.90;9.43;;;8.50;99.90;;;;;;5018619;28;20115;-68
2022/12/28 08:18:26;;;;;;;10.50;9.07;;;8.60;99.90;;;;;;5021728;28;20034;-68
2022/12/28 08:20:52;;;;;;;9.63;8.63;;;8.60;99.90;;;;;;5021126;28;20632;-68
2022/12/28 08:23:18;;;;;;;9.50;8.60;;;8.60;99.90;;;;;;5020574;28;20048;-68
2022/12/28 08:25:44;;;;;;;9.45;8.15;;;8.60;99.90;;;;;;5019504;28;20402;-68
2022/12/28 08:28:10;;;;;;;11.63;8.32;;;8.60;99.90;;;;;;5021696;28;20033;-67
2022/12/28 08:30:36;;;;;;;9.05;8.25;;;8.60;99.90;;;;;;5021322;28;20037;-68
2022/12/28 08:33:01;;;;;;;8.82;7.53;;;8.60;99.90;;;;;;5023377;28;20053;-69
2022/12/28 08:35:27;;;;;;;9.50;7.60;;;8.70;99.90;;;;;;5028335;28;20099;-69
2022/12/28 08:37:56;;;;;;;10.13;7.07;;;8.60;99.90;;;;;;5024664;28;20411;-69
2022/12/28 08:40:26;;;;;;;9.82;7.40;;;8.60;99.90;;;;;;5021600;28;20099;-69
2022/12/28 08:42:55;;;;;;;9.82;7.25;;;8.70;99.90;;;;;;5025591;28;20038;-69
2022/12/28 08:45:21;;;;;;;9.05;8.25;;;8.60;99.90;;;;;;5030848;28;20046;-70
2022/12/28 08:47:47;;;;;;;12.38;9.45;;;8.70;99.90;;;;;;5024386;28;20118;-70
2022/12/28 08:50:13;;;;;;;9.98;8.35;;;8.70;99.90;;;;;;5021219;28;20039;-69
2022/12/28 08:52:39;;;;;;;11.55;9.07;;;8.70;99.90;;;;;;5022772;28;20504;-69
2022/12/28 08:55:05;;;;;;;10.57;9.00;;;8.70;99.90;;;;;;5028071;28;20048;-69
2022/12/28 08:57:32;;;;;;;11.50;9.13;;;8.70;99.90;;;;;;5028084;28;20082;-70
2022/12/28 08:59:58;;;;;;;10.57;8.55;;;8.70;99.90;;;;;;5030777;28;20080;-70
2022/12/28 09:02:24;;;;;;;10.32;8.15;;;8.70;99.90;;;;;;5036896;28;20473;-70
2022/12/28 09:04:52;;;;;;;9.38;7.68;;;8.70;99.90;;;;;;5032421;28;20038;-69
2022/12/28 09:07:18;;;;;;;10.05;7.50;;;8.70;99.90;;;;;;5028287;28;20120;-70
2022/12/28 09:09:44;;;;;;;10.30;6.88;;;8.70;99.90;;;;;;5033352;28;20456;-70
2022/12/28 09:12:10;;;;;;;8.90;7.35;;;8.80;99.90;;;;;;5036103;28;20044;-69
2022/12/28 09:14:36;;;;;;;7.40;6.68;;;8.80;99.90;;;;;;5030110;28;20045;-69
2022/12/28 09:17:02;;;;;;;7.63;6.93;;;8.80;99.90;;;;;;5029304;28;20063;-68
2022/12/28 09:19:28;;;;;;;7.93;6.97;;;8.80;99.90;;;;;;5024775;28;20054;-69
2022/12/28 09:21:54;;;;;;;10.48;7.22;;;8.80;99.90;;;;;;5027079;28;20047;-69
2022/12/28 09:24:21;;;;;;;9.63;6.55;;;8.80;99.90;;;;;;5022394;28;20119;-68
2022/12/28 09:26:47;;;;;;;8.82;7.15;;;8.90;99.90;;;;;;5029873;28;20044;-69
2022/12/28 09:29:13;;;;;;;11.80;6.75;;;8.90;99.90;;;;;;5028209;28;20068;-69
2022/12/28 09:31:40;;;;;;;7.30;6.35;;;8.90;99.90;;;;;;5024608;28;20073;-68
2022/12/28 09:34:11;;;;;;;8.15;6.95;;;8.90;99.90;;;;;;5022178;28;20046;-68
2022/12/28 09:36:44;;;;;;;9.57;6.85;;;8.90;99.90;;;;;;5027247;28;20034;-68
2022/12/28 09:39:16;;;;;;;8.82;6.90;;;8.90;99.90;;;;;;5023009;28;20041;-69
2022/12/28 09:41:58;;;;;;;10.20;7.43;;;9.00;99.90;;;;;;5028263;28;20133;-68
2022/12/28 09:44:43;;;;;;;9.10;7.10;;;9.00;99.90;;;;;;5022128;28;20089;-68
2022/12/28 09:47:30;;;;;;;7.35;6.40;;;9.00;99.90;;;;;;5022989;28;20057;-68
2022/12/28 09:50:17;;;;;;;8.10;7.22;;;9.00;99.90;;;;;;5021369;28;20099;-68
2022/12/28 09:53:14;;;;;;;8.63;7.50;;;9.00;99.90;;;;;;5012301;28;20038;-68
2022/12/28 09:55:44;;;;;;;9.10;7.32;;;9.10;99.90;;;;;;5023861;28;20053;-68
2022/12/28 09:58:15;;;;;;;13.50;10.15;;;9.00;99.90;;;;;;5028695;28;20477;-68
2022/12/28 10:00:51;;;;;;;7.57;6.78;;;9.00;99.90;;;;;;5021550;28;20049;-68
2022/12/28 10:03:30;;;;;;;9.73;7.03;;;9.10;99.90;;;;;;5026761;28;20041;-68
2022/12/28 10:05:57;;;;;;;9.45;7.43;;;9.00;99.90;;;;;;5017913;28;20113;-68
2022/12/28 10:08:24;;;;;;;7.85;7.05;;;9.00;99.90;;;;;;5017239;28;20042;-68
2022/12/28 10:10:52;;;;;;;8.27;6.40;;;9.00;99.90;;;;;;5024081;28;20112;-68
2022/12/28 10:13:27;;;;;;;8.10;7.35;;;9.10;99.90;;;;;;5021427;28;20068;-68
2022/12/28 10:15:54;;;;;;;8.02;6.63;;;9.10;99.90;;;;;;5016499;28;20041;-68
2022/12/28 10:18:23;;;;;;;7.47;6.28;;;9.10;99.90;;;;;;5022298;28;20054;-68
2022/12/28 10:20:49;;;;;;;7.95;7.15;;;9.10;99.90;;;;;;5019480;28;20154;-68
2022/12/28 10:23:25;;;;;;;9.25;7.43;;;9.10;99.90;;;;;;5025165;28;20034;-68
2022/12/28 10:25:54;;;;;;;8.88;7.03;;;9.10;99.90;;;;;;5027777;28;20059;-68
2022/12/28 10:28:23;;;;;;;9.07;7.78;;;9.10;99.90;;;;;;5021135;28;20521;-69
2022/12/28 10:31:07;;;;;;;7.60;6.88;;;9.10;99.90;;;;;;5019063;28;20113;-68
2022/12/28 10:33:41;;;;;;;7.83;7.00;;;9.10;99.90;;;;;;5021132;28;20095;-68
2022/12/28 10:36:14;;;;;;;9.15;7.90;;;9.10;99.90;;;;;;5021312;28;20054;-68
2022/12/28 10:38:51;;;;;;;8.45;7.55;;;9.10;99.90;;;;;;5132433;27;20183;-66
2022/12/28 10:41:18;;;;;;;8.65;7.78;;;9.20;99.90;;;;;;5104591;28;20502;-66
2022/12/28 10:43:51;;;;;;;8.82;7.93;;;9.20;99.90;;;;;;5085037;28;20043;-67
2022/12/28 10:46:20;;;;;;;8.32;7.53;;;9.20;99.90;;;;;;5081646;28;20036;-67
2022/12/28 10:48:56;;;;;;;10.57;7.95;;;9.20;99.90;;;;;;5102044;28;20062;-67
2022/12/28 10:51:27;;;;;;;7.47;6.65;;;9.20;99.90;;;;;;5122772;28;20127;-67
2022/12/28 10:53:55;;;;;;;9.02;6.95;;;9.20;99.90;;;;;;5123931;28;20031;-67
2022/12/28 10:56:28;;;;;;;6.07;5.47;;;9.20;99.90;;;;;;5102474;28;20035;-67
2022/12/28 10:59:12;;;;;;;6.63;5.70;;;9.20;99.90;;;;;;5082918;28;20083;-68
2022/12/28 11:01:39;;;;;;;7.47;6.13;;;9.20;99.90;;;;;;5100821;28;20545;-68
2022/12/28 11:04:23;;;;;;;6.38;5.72;;;9.20;99.90;;;;;;5103805;28;20039;-68
2022/12/28 11:06:59;;;;;;;5.53;5.03;;;9.20;99.90;;;;;;5118445;28;21774;-68
2022/12/28 11:09:34;;;;;;;6.30;5.53;;;9.20;99.90;;;;;;5090163;28;20035;-68
2022/12/28 11:12:17;;;;;;;6.60;5.30;;;9.20;99.90;;;;;;5101952;28;20046;-69
2022/12/28 11:14:43;;;;;;;6.45;5.30;;;9.20;99.90;;;;;;5111117;28;20180;-69
2022/12/28 11:17:12;;;;;;;10.65;5.68;;;9.20;99.90;;;;;;5077921;28;20575;-68
2022/12/28 11:19:38;;;;;;;5.20;4.72;;;9.20;99.90;;;;;;5094381;28;20047;-69
2022/12/28 11:22:03;;;;;;;4.53;4.13;;;9.20;99.90;;;;;;5083263;28;20044;-69
2022/12/28 11:24:29;;;;;;;5.43;4.70;;;9.20;99.90;;;;;;5109992;28;20634;-69
2022/12/28 11:26:56;;;;;;;5.43;4.93;;;9.20;99.90;;;;;;5088030;28;20075;-69
2022/12/28 11:29:22;;;;;;;5.63;4.38;;;9.10;99.90;;;;;;5084120;28;20036;-69
2022/12/28 11:32:07;;;;;;;5.72;4.85;;;9.20;99.90;;;;;;5065448;28;20055;-69
2022/12/28 11:34:36;;;;;;;5.07;4.45;;;9.10;99.90;;;;;;5080561;28;20048;-69
2022/12/28 11:37:02;;;;;;;5.97;4.68;;;9.20;99.90;;;;;;5079542;28;20060;-70
2022/12/28 11:39:27;;;;;;;4.70;4.20;;;9.20;99.90;;;;;;5105607;28;20050;-70
2022/12/28 11:41:58;;;;;;;5.13;4.70;;;9.20;99.90;;;;;;5083789;28;20048;-70
2022/12/28 11:44:30;;;;;;;4.68;4.25;;;9.20;99.90;;;;;;5103693;28;20173;-70
2022/12/28 11:47:15;;;;;;;5.10;4.63;;;9.20;99.90;;;;;;5085128;28;20032;-70
2022/12/28 11:49:43;;;;;;;4.47;4.07;;;9.20;99.90;;;;;;5088188;28;20047;-70
2022/12/28 11:52:29;;;;;;;5.88;4.82;;;9.20;99.90;;;;;;5071694;28;20048;-69
2022/12/28 11:55:22;;;;;;;4.47;4.07;;;9.20;99.90;;;;;;5089328;28;20040;-70
2022/12/28 11:57:50;;;;;;;5.35;4.53;;;9.20;99.90;;;;;;5074113;28;20044;-70
2022/12/28 12:00:16;;;;;;;4.90;4.43;;;9.20;99.90;;;;;;5073269;28;20046;-70
2022/12/28 12:02:47;;;;;;;5.10;4.60;;;9.20;99.90;;;;;;5088959;28;20041;-70
2022/12/28 12:05:35;;;;;;;5.03;4.30;;;9.20;99.90;;;;;;5075771;28;20036;-69
2022/12/28 12:08:21;;;;;;;5.25;4.55;;;9.20;99.90;;;;;;5054404;28;20068;-70
2022/12/28 12:10:48;;;;;;;4.15;3.75;;;9.20;99.90;;;;;;5054378;28;20442;-70
2022/12/28 12:13:26;;;;;;;4.15;3.75;;;9.20;99.90;;;;;;5066966;28;20078;-70
2022/12/28 12:16:02;;;;;;;4.60;4.20;;;9.20;99.90;;;;;;5068972;28;20048;-70
2022/12/28 12:18:32;;;;;;;4.65;4.25;;;9.20;99.90;;;;;;5054371;28;20059;-70
2022/12/28 12:21:05;;;;;;;4.82;4.32;;;9.20;99.90;;;;;;5068032;28;20037;-70
2022/12/28 12:23:47;;;;;;;5.40;4.40;;;9.20;99.90;;;;;;5068439;28;20044;-71
2022/12/28 12:26:27;;;;;;;5.53;4.40;;;9.20;99.90;;;;;;5072522;28;20082;-70
2022/12/28 12:29:14;;;;;;;4.80;4.07;;;9.10;99.90;;;;;;5072012;28;20102;-66
2022/12/28 12:32:01;;;;;;;4.70;3.92;;;9.20;99.90;;;;;;5072990;28;20036;-68
2022/12/28 12:34:46;;;;;;;4.78;4.38;;;9.20;99.90;;;;;;5082197;28;20299;-67
2022/12/28 12:37:46;;;;;;;4.22;3.80;;;9.10;99.90;;;;;;5064829;28;20260;-67
2022/12/28 12:40:30;;;;;;;4.07;3.70;;;9.10;99.90;;;;;;5062288;28;20512;-67
2022/12/28 12:43:08;;;;;;;3.80;3.50;;;9.10;99.90;;;;;;5085785;28;20519;-66
2022/12/28 12:45:59;;;;;;;3.65;3.35;;;9.10;99.90;;;;;;5081672;28;20036;-67
2022/12/28 12:48:36;;;;;;;4.00;3.40;;;9.10;99.90;;;;;;5080730;28;20051;-67
2022/12/28 12:51:22;;;;;;;3.22;2.92;;;9.10;99.90;;;;;;5081851;28;20088;-67
2022/12/28 12:54:20;;;;;;;3.60;2.97;;;9.10;99.90;;;;;;5061630;28;20380;-67
2022/12/28 12:56:54;;;;;;;2.90;2.42;;;9.10;99.90;;;;;;5074377;28;20119;-67
2022/12/28 12:59:43;;;;;;;3.23;2.73;;;9.10;99.90;;;;;;5062257;28;20032;-68
2022/12/28 13:02:30;;;;;;;2.72;2.20;;;9.10;99.90;;;;;;5062858;28;20036;-66
2022/12/28 13:05:00;;;;;;;2.97;2.33;;;9.10;99.90;;;;;;5060332;28;20049;-67
2022/12/28 13:07:27;;;;;;;4.60;2.58;;;9.00;99.90;;;;;;5047862;28;20040;-67
2022/12/28 13:09:56;;;;;;;7.18;2.55;;;9.10;99.90;;;;;;5055469;28;20052;-67
2022/12/28 13:12:23;;;;;;;4.80;2.65;;;9.10;99.90;;;;;;5059861;28;20048;-66
2022/12/28 13:15:03;;;;;;;2.70;1.90;;;9.10;99.90;;;;;;5078268;28;20504;-67
2022/12/28 13:17:29;;;;;;;2.65;2.30;;;9.10;99.90;;;;;;5067943;28;20502;-67
2022/12/28 13:20:18;;;;;;;4.85;2.25;;;9.10;99.90;;;;;;5066766;28;20040;-66
2022/12/28 13:22:45;;;;;;;2.83;2.08;;;9.00;99.90;;;;;;5078372;28;20058;-66
2022/12/28 13:25:31;;;;;;;2.72;1.70;;;9.10;99.90;;;;;;5064674;28;20568;-66
2022/12/28 13:28:02;;;;;;;2.45;1.98;;;9.10;99.90;;;;;;5081726;28;20071;-66
2022/12/28 13:30:28;;;;;;;2.65;2.00;;;9.00;99.90;;;;;;5064255;28;20170;-66
2022/12/28 13:32:57;;;;;;;1.75;1.65;;;9.10;99.90;;;;;;5067169;28;20040;-66
2022/12/28 13:35:29;;;;;;;2.72;2.17;;;9.10;99.90;;;;;;5085287;28;20047;-65
2022/12/28 13:38:07;;;;;;;3.20;1.95;;;9.10;99.90;;;;;;5061467;28;20052;-66
2022/12/28 13:40:36;;;;;;;5.57;2.05;;;9.10;99.90;;;;;;5063507;28;20039;-65
2022/12/28 13:43:24;;;;;;;2.05;1.48;;;9.10;99.90;;;;;;5084161;28;20036;-66